Time;durP1;ratioP1;P1;durP2;ratioP2;P2;SDS_P1;SDS_P2;PMS_P1;PMS_P2;Temp;Humidity;BMP_temperature;BMP_pressure;BME280_temperature;BME280_humidity;BME280_pressure;Samples;Min_cycle;Max_cycle;Signal;HPM_P1;HPM_P2
2022/01/26 00:05:51;;;;;;;14.98;13.25;;;;;;;17.72;47.22;103375.56;4941354;29;20035;-81
2022/01/26 00:08:19;;;;;;;15.00;13.35;;;;;;;17.72;47.18;103385.13;4952052;29;20062;-79
2022/01/26 00:10:44;;;;;;;15.85;12.93;;;;;;;17.72;46.98;103378.19;4935992;29;20028;-79
2022/01/26 00:13:10;;;;;;;14.70;12.82;;;;;;;17.72;47.10;103385.13;4968755;29;20027;-79
2022/01/26 00:15:35;;;;;;;14.65;13.05;;;;;;;17.73;47.16;103389.50;4951801;29;20055;-79
2022/01/26 00:18:00;;;;;;;16.08;13.27;;;;;;;17.70;47.02;103374.66;4965948;29;20027;-79
2022/01/26 00:20:34;;;;;;;16.02;13.40;;;;;;;17.72;47.54;103374.69;4953415;29;20062;-79
2022/01/26 00:23:10;;;;;;;15.27;12.93;;;;;;;17.70;47.19;103369.44;4939769;28;20031;-80
2022/01/26 00:26:00;;;;;;;15.07;12.90;;;;;;;17.71;46.93;103378.16;4955377;29;20034;-80
2022/01/26 00:28:35;;;;;;;16.67;13.60;;;;;;;17.70;47.50;103385.06;4954651;28;20408;-79
2022/01/26 00:39:24;;;;;;;;;;;;;;;17.70;46.88;103369.44;4971228;29;20450;-79
2022/01/26 00:41:49;;;;;;;15.20;13.32;;;;;;;17.69;47.21;103357.28;4951643;29;19914;-79
2022/01/26 00:44:15;;;;;;;15.40;12.90;;;;;;;17.69;47.08;103357.28;4969324;29;20035;-79
2022/01/26 00:46:47;;;;;;;15.50;12.80;;;;;;;17.68;46.88;103351.19;4938004;29;20038;-79
2022/01/26 01:11:34;;;;;;;14.05;12.38;;;;;;;17.65;46.89;103318.94;5454534;23;20129;-79
2022/01/26 01:14:00;;;;;;;14.75;13.05;;;;;;;17.63;46.92;103318.91;4965452;29;20445;-79
2022/01/26 01:16:26;;;;;;;16.42;13.65;;;;;;;17.64;46.75;103314.59;4965065;29;20050;-79
2022/01/26 01:19:02;;;;;;;14.15;12.65;;;;;;;17.64;46.87;103318.06;4965682;29;20103;-79
2022/01/26 01:27:01;;;;;;;;;;;;;;;17.63;46.81;103320.63;4967439;29;20027;-79
2022/01/26 01:29:56;;;;;;;14.30;12.50;;;;;;;17.64;46.49;103322.41;4965986;28;19914;-79
2022/01/26 01:32:26;;;;;;;16.40;14.30;;;;;;;17.64;46.60;103314.59;4966201;28;20031;-79
2022/01/26 01:34:51;;;;;;;15.00;12.82;;;;;;;17.62;46.84;103311.94;4951109;29;20024;-79
2022/01/26 01:37:17;;;;;;;15.23;13.50;;;;;;;17.62;46.86;103298.91;4952752;29;20508;-79
2022/01/26 01:39:43;;;;;;;15.05;13.05;;;;;;;17.61;46.90;103296.25;4952929;29;20090;-79
2022/01/26 01:42:09;;;;;;;15.02;12.90;;;;;;;17.61;46.83;103291.94;4969757;28;20054;-79
2022/01/26 01:44:37;;;;;;;17.60;13.38;;;;;;;17.61;47.10;103297.13;4966565;29;20027;-79
2022/01/26 01:47:05;;;;;;;14.98;12.95;;;;;;;17.59;46.70;103290.13;4968629;29;20127;-79
2022/01/26 01:49:31;;;;;;;14.95;13.10;;;;;;;17.59;46.85;103283.19;4968858;29;20481;-79
2022/01/26 01:52:03;;;;;;;14.63;13.07;;;;;;;17.59;46.83;103283.19;4969410;29;20038;-79
2022/01/26 01:54:28;;;;;;;15.10;12.90;;;;;;;17.60;46.65;103279.75;4955366;29;20031;-79
2022/01/26 01:56:57;;;;;;;16.92;13.45;;;;;;;17.59;46.55;103279.72;4956180;29;20095;-79
2022/01/26 01:59:25;;;;;;;15.80;14.02;;;;;;;17.59;46.61;103277.09;4954203;29;20039;-79
2022/01/26 02:01:50;;;;;;;15.90;13.40;;;;;;;17.58;46.67;103289.25;4968905;28;20035;-79
2022/01/26 02:04:16;;;;;;;18.40;14.23;;;;;;;17.58;46.65;103297.06;4968447;29;20042;-79
2022/01/26 02:06:43;;;;;;;15.07;13.15;;;;;;;17.58;46.72;103293.56;4952823;29;20042;-80
2022/01/26 02:09:09;;;;;;;15.95;14.27;;;;;;;17.58;46.63;103277.97;4936644;29;20031;-79
2022/01/26 02:11:35;;;;;;;14.70;13.18;;;;;;;17.57;46.71;103269.28;4967337;29;20066;-79
2022/01/26 02:14:09;;;;;;;16.92;13.80;;;;;;;17.57;46.52;103274.47;4967556;29;20046;-80
2022/01/26 02:16:45;;;;;;;;;;;;;;;17.59;46.42;103297.94;4967965;29;20035;-79
2022/01/26 02:51:54;;;;;;;17.55;15.45;;;;;;;17.53;46.51;103233.56;4950768;29;20034;-79
2022/01/26 02:57:01;;;;;;;17.48;15.57;;;;;;;17.53;46.53;103217.03;4964592;29;20066;-79
2022/01/26 03:02:05;;;;;;;18.50;16.40;;;;;;;17.51;46.53;103237.84;4966210;29;20027;-79
2022/01/26 03:04:47;;;;;;;18.33;15.63;;;;;;;17.52;46.49;103226.56;4963683;29;20031;-80
2022/01/26 03:07:20;;;;;;;18.08;16.17;;;;;;;17.51;46.51;103226.53;4948830;29;20114;-79
2022/01/26 03:09:59;;;;;;;19.52;16.52;;;;;;;17.50;46.54;103212.63;4947397;29;20555;-79
2022/01/26 03:13:11;;;;;;;18.65;15.90;;;;;;;17.50;46.22;103223.03;4947337;29;20059;-80
2022/01/26 03:15:19;;;;;;;18.95;16.30;;;;;;;17.52;46.36;103230.91;4959943;29;20039;-79
2022/01/26 03:20:30;;;;;;;;;;;;;;;17.51;46.22;103231.72;4947941;29;20074;-79
2022/01/26 03:28:37;;;;;;;;;;;;;;;17.48;46.46;103222.13;4952026;29;20408;-78
2022/01/26 03:31:37;;;;;;;18.50;16.50;;;;;;;17.48;46.41;103227.31;4964293;29;19914;-78
2022/01/26 03:34:07;;;;;;;19.73;16.65;;;;;;;17.48;46.78;103242.94;4963210;29;20031;-78
2022/01/26 03:36:43;;;;;;;19.70;17.38;;;;;;;17.46;46.40;103248.13;4961225;29;20054;-78
2022/01/26 03:39:10;;;;;;;19.17;17.17;;;;;;;17.47;46.52;103239.47;4959735;29;20067;-78
2022/01/26 03:44:03;;;;;;;19.33;17.05;;;;;;;17.46;46.42;103242.00;4962809;29;20068;-78
2022/01/26 03:46:29;;;;;;;19.25;17.15;;;;;;;17.46;46.43;103245.53;4948384;29;20051;-78
2022/01/26 03:48:55;;;;;;;20.90;17.85;;;;;;;17.46;46.33;103253.34;4947843;29;20034;-79
2022/01/26 03:51:20;;;;;;;18.92;16.92;;;;;;;17.45;46.47;103256.75;4963891;29;20023;-78
2022/01/26 03:53:46;;;;;;;19.33;16.98;;;;;;;17.46;46.41;103281.97;4947295;29;20061;-79
2022/01/26 03:56:11;;;;;;;19.73;17.63;;;;;;;17.45;46.65;103276.72;4929074;29;20385;-78
2022/01/26 03:58:36;;;;;;;19.13;16.98;;;;;;;17.45;46.51;103274.09;4943170;29;20023;-79
2022/01/26 04:01:02;;;;;;;19.35;17.33;;;;;;;17.45;46.62;103277.59;4961233;29;20097;-79
2022/01/26 04:03:28;;;;;;;20.67;18.42;;;;;;;17.45;46.41;103284.53;4947667;29;20389;-78
2022/01/26 04:05:53;;;;;;;20.10;17.98;;;;;;;17.45;46.48;103285.41;4948343;29;20030;-79
2022/01/26 04:08:24;;;;;;;22.25;18.50;;;;;;;17.44;46.40;103264.50;4947355;29;20083;-79
2022/01/26 04:13:21;;;;;;;19.83;17.55;;;;;;;17.44;46.45;103233.28;4962036;29;20058;-79
2022/01/26 04:15:47;;;;;;;19.55;17.45;;;;;;;17.42;46.43;103222.84;4947007;29;20031;-78
2022/01/26 04:18:17;;;;;;;20.23;18.08;;;;;;;17.42;46.44;103222.84;4961317;28;20023;-79
2022/01/26 04:20:47;;;;;;;21.33;17.77;;;;;;;17.43;46.48;103226.31;4946360;29;20489;-79
2022/01/26 04:23:18;;;;;;;20.70;18.50;;;;;;;17.43;46.32;103208.97;4964022;29;20035;-78
2022/01/26 04:25:46;;;;;;;19.40;17.08;;;;;;;17.43;46.58;103202.91;4966028;29;20432;-79
2022/01/26 04:28:18;;;;;;;21.80;18.77;;;;;;;17.43;46.34;103227.19;4968740;28;20027;-79
2022/01/26 04:30:43;;;;;;;22.15;19.50;;;;;;;17.43;46.40;103237.59;4967785;29;20548;-79
2022/01/26 04:33:09;;;;;;;21.75;19.00;;;;;;;17.41;46.50;103228.88;4965063;28;20034;-78
2022/01/26 04:35:34;;;;;;;20.05;17.85;;;;;;;17.43;46.35;103231.53;4964504;29;20027;-79
2022/01/26 04:40:34;;;;;;;21.20;18.90;;;;;;;17.40;46.29;103229.72;4966352;29;20023;-79
2022/01/26 04:43:01;;;;;;;22.65;19.40;;;;;;;17.40;46.45;103211.50;4950301;29;20162;-78
2022/01/26 04:45:27;;;;;;;20.63;18.25;;;;;;;17.40;46.66;103197.63;4948210;29;20045;-78
2022/01/26 04:47:52;;;;;;;19.85;17.75;;;;;;;17.40;46.53;103216.72;4929719;29;20062;-78
2022/01/26 04:50:17;;;;;;;21.17;18.95;;;;;;;17.39;46.84;103201.91;4944340;29;20030;-78
2022/01/26 04:52:46;;;;;;;21.50;19.05;;;;;;;17.39;46.56;103191.50;4960904;29;20039;-78
2022/01/26 04:55:12;;;;;;;21.88;18.40;;;;;;;17.39;46.43;103195.84;4929990;29;20122;-79
2022/01/26 04:57:37;;;;;;;19.92;17.83;;;;;;;17.39;46.75;103207.13;4944647;29;20032;-78
2022/01/26 05:00:05;;;;;;;20.92;18.65;;;;;;;17.38;46.53;103187.16;4929291;29;20031;-78
2022/01/26 05:02:31;;;;;;;20.65;18.42;;;;;;;17.39;46.55;103188.03;4962119;29;20524;-79
2022/01/26 05:04:56;;;;;;;21.13;18.83;;;;;;;17.38;46.52;103192.34;4944420;29;20063;-78
2022/01/26 05:07:21;;;;;;;20.35;18.20;;;;;;;17.38;46.53;103191.47;4944507;29;20473;-78
2022/01/26 05:09:47;;;;;;;21.35;19.08;;;;;;;17.39;46.52;103201.03;4929315;29;20049;-78
2022/01/26 05:12:14;;;;;;;20.48;18.27;;;;;;;17.39;46.37;103198.44;4964743;29;20133;-78
2022/01/26 05:14:41;;;;;;;19.45;17.35;;;;;;;17.38;46.37;103200.16;4951286;29;20051;-79
2022/01/26 05:17:06;;;;;;;19.88;17.75;;;;;;;17.37;46.53;103210.53;4969315;29;20027;-79
2022/01/26 05:19:32;;;;;;;20.02;17.88;;;;;;;17.38;46.61;103215.78;4937500;29;20042;-79
2022/01/26 05:21:58;;;;;;;19.85;17.15;;;;;;;17.37;46.47;103214.00;4970274;29;20050;-80
2022/01/26 05:24:24;;;;;;;19.58;17.25;;;;;;;17.37;46.56;103224.41;4972800;28;20027;-81
2022/01/26 05:26:49;;;;;;;20.13;16.95;;;;;;;17.36;46.43;103214.84;4970336;29;20031;-83
2022/01/26 05:29:14;;;;;;;19.67;17.27;;;;;;;17.37;46.48;103224.41;4969572;29;20469;-80
2022/01/26 05:31:40;;;;;;;18.55;16.55;;;;;;;17.38;46.42;103217.50;4953656;29;20071;-79
2022/01/26 05:34:07;;;;;;;19.08;16.92;;;;;;;17.38;46.32;103217.50;4953692;29;20051;-80
2022/01/26 05:36:32;;;;;;;18.90;16.38;;;;;;;17.38;46.34;103212.31;4971386;29;20086;-79
2022/01/26 05:38:57;;;;;;;18.50;16.52;;;;;;;17.37;46.08;103214.00;4967435;29;20481;-80
2022/01/26 05:41:23;;;;;;;18.33;16.23;;;;;;;17.38;46.15;103215.78;4954363;29;20469;-79
2022/01/26 05:43:48;;;;;;;19.65;16.38;;;;;;;17.38;46.16;103209.69;4972331;29;20099;-80
2022/01/26 05:46:22;;;;;;;20.10;16.98;;;;;;;17.36;46.63;103206.16;4957569;29;20023;-80
2022/01/26 05:48:49;;;;;;;19.45;17.15;;;;;;;17.37;46.09;103206.19;4956811;29;20076;-80
2022/01/26 05:51:16;;;;;;;18.20;16.25;;;;;;;17.36;46.17;103217.44;4975605;28;20023;-80
2022/01/26 05:53:41;;;;;;;19.10;16.60;;;;;;;17.36;46.11;103203.56;4941638;29;20063;-81
2022/01/26 05:59:48;;;;;;;19.95;17.17;;;;;;;17.35;46.04;103202.66;4978559;29;20042;-81
2022/01/26 06:02:18;;;;;;;18.20;16.30;;;;;;;17.35;46.26;103205.25;4977976;28;20031;-82
2022/01/26 06:04:44;;;;;;;19.08;16.15;;;;;;;17.34;46.34;103190.50;4980625;29;20027;-82
2022/01/26 06:07:10;;;;;;;20.45;17.52;;;;;;;17.34;46.78;103198.31;4973728;29;20197;-79
2022/01/26 06:09:35;;;;;;;19.95;16.35;;;;;;;17.41;46.91;103194.16;4974626;29;20087;-77
2022/01/26 06:12:00;;;;;;;21.67;17.05;;;;;;;17.41;46.92;103197.63;4973449;28;20092;-78
2022/01/26 06:14:26;;;;;;;23.35;17.33;;;;;;;17.42;46.79;103204.63;4954240;29;20099;-77
2022/01/26 06:16:51;;;;;;;26.13;18.15;;;;;;;17.42;46.90;103202.03;4972383;29;20027;-77
2022/01/26 06:19:16;;;;;;;26.17;18.38;;;;;;;17.43;46.95;103198.56;4965491;29;20035;-77
2022/01/26 06:21:42;;;;;;;22.85;17.77;;;;;;;17.43;46.97;103200.28;4964567;28;20035;-78
2022/01/26 06:24:07;;;;;;;22.58;18.08;;;;;;;17.42;47.15;103194.22;4933107;29;20039;-78
2022/01/26 06:26:33;;;;;;;23.27;17.20;;;;;;;17.43;47.34;103188.16;4948907;29;20035;-78
2022/01/26 06:28:58;;;;;;;26.27;18.42;;;;;;;17.44;47.15;103187.31;4964064;29;20031;-78
2022/01/26 06:31:27;;;;;;;25.38;17.90;;;;;;;17.44;47.06;103189.94;4931158;29;20031;-78
2022/01/26 06:33:52;;;;;;;20.60;16.58;;;;;;;17.44;47.22;103212.44;4962322;29;20035;-78
2022/01/26 06:36:18;;;;;;;22.38;17.48;;;;;;;17.45;47.29;103222.03;4961511;29;20117;-78
2022/01/26 06:38:46;;;;;;;22.17;17.05;;;;;;;17.44;47.22;103204.66;4946363;29;20036;-78
2022/01/26 06:41:13;;;;;;;21.67;17.02;;;;;;;17.46;47.27;103197.75;4960127;28;20054;-78
2022/01/26 06:43:49;;;;;;;22.25;17.45;;;;;;;17.45;47.35;103199.50;4945162;29;20023;-78
2022/01/26 06:46:23;;;;;;;20.77;17.48;;;;;;;17.45;47.26;103190.81;4951291;29;20033;-78
2022/01/26 06:49:28;;;;;;;18.85;16.08;;;;;;;17.46;47.33;103208.19;4947705;29;20409;-78
2022/01/26 06:51:54;;;;;;;20.92;16.83;;;;;;;17.46;47.37;103215.97;4952701;29;20027;-78
2022/01/26 06:54:20;;;;;;;21.88;16.73;;;;;;;17.46;47.28;103226.41;4963128;29;20034;-78
2022/01/26 06:56:45;;;;;;;21.25;16.63;;;;;;;17.45;47.37;103235.94;4962906;29;20473;-78
2022/01/26 06:59:14;;;;;;;20.90;17.17;;;;;;;17.47;47.31;103241.19;4946953;29;20041;-78
2022/01/26 07:01:41;;;;;;;23.88;17.30;;;;;;;17.46;47.49;103239.41;4966422;29;20586;-78
2022/01/26 07:04:07;;;;;;;18.50;15.88;;;;;;;17.47;47.38;103246.41;4966486;28;20496;-78
2022/01/26 07:06:32;;;;;;;18.88;16.05;;;;;;;17.47;47.33;103247.28;4968110;29;20027;-78
2022/01/26 07:08:58;;;;;;;22.52;16.90;;;;;;;17.47;47.41;103249.00;4967928;29;20031;-78
2022/01/26 07:11:23;;;;;;;20.60;16.85;;;;;;;17.46;47.34;103245.53;4964431;29;20038;-78
2022/01/26 07:13:52;;;;;;;20.40;16.00;;;;;;;17.47;47.38;103251.59;4961167;29;20039;-78
2022/01/26 07:21:51;;;;;;;;;;;;;;;17.47;47.36;103243.78;4962043;29;20091;-79
2022/01/26 07:24:16;;;;;;;21.23;16.13;;;;;;;17.51;47.02;103244.75;4947899;29;19914;-78
2022/01/26 07:26:43;;;;;;;18.50;15.38;;;;;;;17.56;47.50;103251.00;4967067;29;20078;-78
2022/01/26 07:29:12;;;;;;;21.45;15.75;;;;;;;17.58;47.28;103238.91;4965108;29;20098;-78
2022/01/26 07:31:42;;;;;;;19.17;15.13;;;;;;;17.60;47.18;103243.31;4957827;29;20032;-77
2022/01/26 07:34:15;;;;;;;20.50;15.23;;;;;;;17.63;47.33;103250.31;4957908;28;20539;-77
2022/01/26 07:36:42;;;;;;;19.27;15.43;;;;;;;17.63;47.29;103248.59;4959414;29;20039;-76
2022/01/26 07:39:12;;;;;;;18.92;14.55;;;;;;;17.64;47.35;103249.50;4959557;29;20110;-76
2022/01/26 07:41:38;;;;;;;18.95;14.98;;;;;;;17.64;47.17;103236.47;4960006;29;20039;-76
2022/01/26 07:44:03;;;;;;;17.00;14.43;;;;;;;17.65;47.25;103230.41;4941526;29;20031;-76
2022/01/26 07:46:30;;;;;;;17.15;14.50;;;;;;;17.65;47.38;103227.81;4957176;29;20491;-76
2022/01/26 07:48:55;;;;;;;16.83;14.23;;;;;;;17.66;47.34;103234.81;4956987;29;20106;-76
2022/01/26 07:51:21;;;;;;;16.55;13.73;;;;;;;17.67;47.27;103242.63;4956701;29;20027;-76
2022/01/26 07:53:47;;;;;;;16.65;14.02;;;;;;;17.67;47.24;103245.25;4956932;29;20491;-77
2022/01/26 07:56:13;;;;;;;17.92;14.48;;;;;;;17.68;47.24;103240.91;4941308;29;20035;-76
2022/01/26 07:58:40;;;;;;;17.08;14.23;;;;;;;17.68;47.08;103248.72;4956341;29;20106;-76
2022/01/26 08:01:06;;;;;;;17.38;14.20;;;;;;;17.67;47.10;103236.56;4956567;29;20106;-76
2022/01/26 08:03:34;;;;;;;15.27;13.07;;;;;;;17.68;47.18;103238.31;4957247;29;20423;-76
2022/01/26 08:06:01;;;;;;;16.35;13.35;;;;;;;17.69;46.90;103237.47;4940176;29;20031;-76
2022/01/26 08:08:28;;;;;;;15.95;12.93;;;;;;;17.71;46.96;103234.94;4940097;29;20385;-75
2022/01/26 08:10:55;;;;;;;15.48;13.20;;;;;;;17.70;47.15;103234.03;4956868;29;20134;-76
2022/01/26 08:13:20;;;;;;;15.13;12.80;;;;;;;17.70;47.07;103228.81;4939626;29;20051;-76
2022/01/26 08:15:45;;;;;;;17.10;13.65;;;;;;;17.72;47.32;103228.88;4955733;29;20500;-76
2022/01/26 08:18:11;;;;;;;15.20;13.32;;;;;;;17.70;47.12;103223.59;4956997;29;20139;-76
2022/01/26 08:20:36;;;;;;;16.42;13.02;;;;;;;17.73;46.92;103222.84;4955964;29;20035;-76
2022/01/26 08:23:01;;;;;;;16.17;13.30;;;;;;;17.72;46.82;103216.72;4940198;29;20031;-76
2022/01/26 08:25:28;;;;;;;15.07;12.75;;;;;;;17.73;47.08;103222.84;4939541;29;20045;-76
2022/01/26 08:28:01;;;;;;;16.15;12.60;;;;;;;17.72;46.87;103219.31;4955555;29;20030;-76
2022/01/26 08:30:28;;;;;;;16.48;12.32;;;;;;;17.73;46.84;103218.50;4955313;29;20030;-76
2022/01/26 08:32:53;;;;;;;13.88;12.35;;;;;;;17.73;47.16;103215.91;4955333;29;20027;-76
2022/01/26 08:35:19;;;;;;;15.80;12.38;;;;;;;17.74;46.93;103206.34;4955482;29;20081;-76
2022/01/26 08:37:44;;;;;;;14.23;11.93;;;;;;;17.76;46.82;103217.69;4956374;29;20031;-78
2022/01/26 08:40:10;;;;;;;13.80;12.00;;;;;;;17.76;47.04;103223.78;4957131;29;20433;-76
2022/01/26 08:42:37;;;;;;;14.55;11.73;;;;;;;17.76;47.07;103222.91;4956433;28;20551;-76
2022/01/26 08:45:04;;;;;;;14.88;12.38;;;;;;;17.76;46.96;103226.38;4957587;28;20031;-76
2022/01/26 08:47:29;;;;;;;15.00;12.02;;;;;;;17.77;46.82;103222.97;4942722;29;20062;-77
2022/01/26 08:49:54;;;;;;;14.50;12.18;;;;;;;17.77;46.71;103230.78;4940660;29;20058;-76
2022/01/26 08:52:20;;;;;;;14.13;11.70;;;;;;;17.78;46.80;103240.34;4955744;29;20469;-76
2022/01/26 08:54:45;;;;;;;14.27;11.65;;;;;;;17.78;46.83;103248.16;4956085;29;20031;-76
2022/01/26 08:57:10;;;;;;;14.18;11.82;;;;;;;17.78;46.67;103242.94;4955581;29;20031;-76
2022/01/26 08:59:36;;;;;;;15.73;12.02;;;;;;;17.78;46.49;103245.53;4923572;29;20126;-77
2022/01/26 09:02:01;;;;;;;13.35;11.02;;;;;;;17.79;46.77;103243.81;4954953;29;20488;-75
2022/01/26 09:04:26;;;;;;;12.88;10.75;;;;;;;17.79;46.78;103242.13;4955989;29;20015;-76
2022/01/26 09:06:54;;;;;;;12.70;11.15;;;;;;;17.78;46.65;103237.72;4954540;29;20035;-76
2022/01/26 09:09:21;;;;;;;12.65;10.95;;;;;;;17.80;46.77;103232.56;4923160;29;20035;-76
2022/01/26 09:11:48;;;;;;;14.23;11.15;;;;;;;17.80;46.80;103228.25;4938285;29;20051;-76
2022/01/26 09:14:18;;;;;;;13.35;11.30;;;;;;;17.80;46.66;103228.25;4954680;29;20035;-76
2022/01/26 09:16:45;;;;;;;13.57;11.23;;;;;;;17.81;46.79;103232.63;4955782;29;20098;-76
2022/01/26 09:19:24;;;;;;;15.70;10.82;;;;;;;17.81;46.83;103226.50;4955482;29;20066;-76
2022/01/26 09:21:49;;;;;;;15.30;10.57;;;;;;;17.81;46.62;103223.91;4940504;29;20027;-76
2022/01/26 09:24:15;;;;;;;13.05;11.05;;;;;;;17.81;46.58;103222.22;4954632;29;20031;-76
2022/01/26 09:26:41;;;;;;;13.65;10.57;;;;;;;17.82;46.71;103218.78;4938643;29;20030;-76
2022/01/26 09:29:06;;;;;;;11.95;10.57;;;;;;;17.81;46.76;103227.41;4938687;29;20079;-76
2022/01/26 09:31:32;;;;;;;11.93;10.45;;;;;;;17.82;46.65;103234.41;4955663;29;20032;-76
2022/01/26 09:33:57;;;;;;;14.25;10.77;;;;;;;17.84;46.61;103234.47;4961140;29;20031;-76
2022/01/26 09:36:23;;;;;;;11.88;10.20;;;;;;;17.84;47.00;103243.16;4962390;29;20524;-76
2022/01/26 09:38:48;;;;;;;14.75;11.07;;;;;;;17.83;46.46;103233.59;4943169;29;20031;-76
2022/01/26 09:41:14;;;;;;;12.85;10.20;;;;;;;17.84;46.47;103219.72;4957114;28;20035;-76
2022/01/26 09:43:43;;;;;;;12.48;9.95;;;;;;;17.85;46.66;103216.25;4956783;29;20027;-76
2022/01/26 09:46:11;;;;;;;11.27;9.30;;;;;;;17.86;46.58;103211.94;4956865;29;20023;-75
2022/01/26 09:48:38;;;;;;;12.02;10.20;;;;;;;17.86;46.69;103218.03;4960731;28;20106;-75
2022/01/26 09:51:05;;;;;;;13.20;10.32;;;;;;;17.89;46.50;103222.44;4941415;29;20121;-76
2022/01/26 09:53:32;;;;;;;13.15;10.55;;;;;;;17.89;46.82;103227.66;4956905;29;20023;-75
2022/01/26 09:55:58;;;;;;;11.43;9.85;;;;;;;17.91;46.48;103236.38;4957976;28;20027;-76
2022/01/26 09:58:25;;;;;;;12.02;10.18;;;;;;;17.92;46.46;103252.88;4960686;28;20026;-76
2022/01/26 10:01:02;;;;;;;11.98;9.90;;;;;;;17.93;46.59;103247.72;4958539;29;20041;-76
2022/01/26 10:03:32;;;;;;;11.98;9.60;;;;;;;17.94;46.40;103240.78;4958431;28;20030;-77
2022/01/26 10:05:59;;;;;;;11.77;9.68;;;;;;;17.92;46.62;103240.78;4958777;28;20086;-77
2022/01/26 10:19:08;;;;;;;11.05;9.65;;;;;;;17.96;46.84;103233.91;4960684;29;20031;-76
2022/01/26 10:21:45;;;;;;;11.57;8.93;;;;;;;17.97;46.64;103231.34;4962878;28;20020;-76
2022/01/26 10:24:12;;;;;;;10.25;9.07;;;;;;;17.98;46.49;103234.81;4964646;28;20033;-75
2022/01/26 10:26:37;;;;;;;10.95;8.98;;;;;;;17.98;46.43;103232.22;4961426;29;20042;-76
2022/01/26 10:29:04;;;;;;;10.50;9.35;;;;;;;17.98;46.73;103235.69;4960403;29;20031;-77
2022/01/26 10:31:32;;;;;;;10.43;9.10;;;;;;;17.98;46.51;103233.09;4927703;29;20019;-77
2022/01/26 10:34:07;;;;;;;12.88;9.50;;;;;;;17.98;46.46;103238.31;4960346;28;20117;-77
2022/01/26 10:36:42;;;;;;;10.88;9.07;;;;;;;17.99;46.59;103253.09;4958529;28;20027;-77
2022/01/26 10:39:15;;;;;;;10.18;8.95;;;;;;;17.99;46.30;103239.22;4965097;28;20023;-76
2022/01/26 10:41:43;;;;;;;11.27;9.27;;;;;;;17.99;46.54;103237.47;4963742;28;20067;-77
2022/01/26 10:44:09;;;;;;;10.05;8.88;;;;;;;18.00;46.62;103228.81;4963767;28;20093;-76
2022/01/26 10:46:42;;;;;;;10.90;9.40;;;;;;;18.01;46.48;103230.59;4963158;28;20417;-76
2022/01/26 10:54:37;;;;;;;11.93;9.32;;;;;;;18.03;46.31;103217.56;4966359;28;20035;-77
2022/01/26 10:57:12;;;;;;;11.13;8.95;;;;;;;18.03;46.39;103213.28;4951502;29;20039;-77
2022/01/26 10:59:40;;;;;;;11.25;8.88;;;;;;;18.05;46.36;103221.09;4965699;28;20035;-77
2022/01/26 11:02:07;;;;;;;10.13;8.43;;;;;;;18.05;46.41;103221.09;4964955;28;20031;-77
2022/01/26 11:04:35;;;;;;;10.80;9.00;;;;;;;18.05;46.27;103222.00;4966079;28;20019;-78
2022/01/26 11:07:02;;;;;;;11.93;8.88;;;;;;;18.06;46.40;103222.88;4964758;28;20027;-77
2022/01/26 11:09:31;;;;;;;9.80;8.48;;;;;;;18.06;46.43;103225.50;4965269;28;20031;-77
2022/01/26 11:12:05;;;;;;;9.48;8.30;;;;;;;18.08;46.36;103214.25;4965479;28;20085;-76
2022/01/26 11:15:05;;;;;;;9.40;8.13;;;;;;;18.08;46.43;103200.38;4946741;29;20027;-77
2022/01/26 11:17:35;;;;;;;10.82;8.18;;;;;;;18.09;46.40;103191.69;4965326;29;20058;-76
2022/01/26 11:20:13;;;;;;;9.30;8.10;;;;;;;18.11;46.41;103194.34;4966241;28;20027;-77
2022/01/26 11:22:51;;;;;;;9.15;8.23;;;;;;;18.11;46.24;103197.81;4963739;29;20374;-77
2022/01/26 11:25:17;;;;;;;10.00;8.63;;;;;;;18.11;46.33;103197.81;4964084;28;20034;-76
2022/01/26 11:27:43;;;;;;;8.88;7.85;;;;;;;18.12;46.07;103194.38;4962244;28;20030;-77
2022/01/26 11:30:17;;;;;;;11.35;8.25;;;;;;;18.13;46.20;103187.44;4963308;29;20027;-77
2022/01/26 11:32:53;;;;;;;9.10;8.20;;;;;;;18.14;46.25;103194.41;4960316;28;20189;-77
2022/01/26 11:35:21;;;;;;;8.30;7.25;;;;;;;18.13;46.40;103188.31;4961034;28;20062;-77
2022/01/26 11:38:03;;;;;;;10.20;8.18;;;;;;;18.13;46.12;103190.94;4960217;28;20063;-77
2022/01/26 11:46:11;;;;;;;;;;;;;;;18.14;46.22;103197.94;4959460;29;20455;-76
2022/01/26 11:48:38;;;;;;;8.65;7.72;;;;;;;18.14;46.11;103187.50;4959298;28;19946;-76
2022/01/26 11:51:05;;;;;;;9.90;8.07;;;;;;;18.13;46.24;103192.66;4960740;28;20027;-75
2022/01/26 11:53:31;;;;;;;9.45;8.00;;;;;;;18.15;46.48;103196.19;4942052;29;20062;-76
2022/01/26 11:56:08;;;;;;;9.32;8.05;;;;;;;18.14;46.43;103191.81;4942727;29;20050;-75
2022/01/26 11:58:41;;;;;;;8.77;7.80;;;;;;;18.15;46.55;103201.41;4958878;28;20057;-77
2022/01/26 12:01:14;;;;;;;9.00;7.72;;;;;;;18.15;46.45;103190.97;4958380;28;20034;-76
2022/01/26 12:03:47;;;;;;;8.95;7.75;;;;;;;18.15;46.41;103190.97;4959249;28;20027;-77
2022/01/26 12:06:21;;;;;;;13.90;9.27;;;;;;;18.09;46.30;103189.09;4958773;28;20051;-77
2022/01/26 12:08:47;;;;;;;9.27;8.23;;;;;;;18.17;46.44;103189.28;4959690;28;20126;-78
2022/01/26 12:11:16;;;;;;;10.32;7.60;;;;;;;18.20;46.46;103184.16;4969360;28;20024;-79
2022/01/26 12:13:42;;;;;;;10.10;7.60;;;;;;;18.19;46.59;103180.66;4968530;28;20047;-79
2022/01/26 12:16:13;;;;;;;9.90;7.32;;;;;;;18.19;46.77;103178.06;4964778;29;20050;-80
2022/01/26 12:18:55;;;;;;;8.98;8.02;;;;;;;18.17;46.61;103169.31;4949776;28;20027;-80
2022/01/26 12:38:19;;;;;;;9.23;7.47;;;;;;;18.18;46.48;103172.81;4962473;28;20488;-80
2022/01/26 12:43:36;;;;;;;10.55;7.70;;;;;;;18.19;46.51;103170.25;4954792;28;20036;-80
2022/01/26 12:46:04;;;;;;;9.15;7.68;;;;;;;18.19;46.56;103161.56;4964069;29;20035;-80
2022/01/26 12:48:30;;;;;;;9.30;7.90;;;;;;;18.18;46.72;103152.84;4948079;29;20484;-80
2022/01/26 12:50:58;;;;;;;9.55;7.72;;;;;;;18.19;46.30;103154.59;4946410;29;20023;-80
2022/01/26 12:53:28;;;;;;;8.18;7.25;;;;;;;18.19;46.35;103146.78;4947836;29;20041;-81
2022/01/26 12:55:56;;;;;;;9.38;7.78;;;;;;;18.20;46.45;103135.50;4965669;28;20106;-81
2022/01/26 12:58:28;;;;;;;9.27;7.68;;;;;;;18.20;46.50;103143.31;4962852;28;20031;-80
2022/01/26 13:00:59;;;;;;;8.55;7.45;;;;;;;18.22;46.58;103140.75;4970550;29;20114;-79
2022/01/26 13:03:29;;;;;;;9.27;7.70;;;;;;;18.23;46.58;103145.16;4969144;28;20114;-80
2022/01/26 13:06:23;;;;;;;9.18;7.45;;;;;;;18.24;46.66;103139.06;4963043;28;20049;-81
2022/01/26 13:08:49;;;;;;;9.77;7.95;;;;;;;18.22;46.72;103128.59;4967553;28;20082;-81
2022/01/26 13:11:22;;;;;;;10.43;8.10;;;;;;;18.24;46.79;103128.66;4966841;28;20049;-80
2022/01/26 13:13:47;;;;;;;9.07;7.75;;;;;;;18.23;47.00;103126.91;4947454;29;20058;-81
2022/01/26 13:16:15;;;;;;;8.40;7.47;;;;;;;18.25;46.67;103130.44;4945106;29;20130;-80
2022/01/26 13:19:10;;;;;;;8.50;7.05;;;;;;;18.24;46.70;103132.13;4960345;28;20042;-79
2022/01/26 13:27:17;;;;;;;8.88;7.35;;;;;;;18.25;46.69;103118.28;4960807;28;20039;-80
2022/01/26 13:29:56;;;;;;;8.45;7.13;;;;;;;18.25;46.69;103118.28;4934458;29;20031;-80
2022/01/26 13:40:41;;;;;;;8.40;7.25;;;;;;;18.25;46.94;103123.50;4978374;29;20023;-81
2022/01/26 13:46:25;;;;;;;8.20;7.22;;;;;;;18.27;46.84;103107.91;4969089;29;20063;-81
2022/01/26 13:51:38;;;;;;;8.57;7.20;;;;;;;18.27;46.86;103123.53;4968527;29;20085;-82
2022/01/26 13:57:42;;;;;;;7.78;6.65;;;;;;;18.27;47.10;103115.72;4976025;28;20038;-80
2022/01/26 13:59:30;;;;;;;7.63;6.82;;;;;;;18.27;46.62;103123.53;4957778;29;20098;-80
2022/01/26 14:01:57;;;;;;;8.15;6.70;;;;;;;18.26;47.02;103120.03;4951155;29;20115;-80
2022/01/26 14:04:23;;;;;;;7.13;6.35;;;;;;;18.28;47.01;103115.72;4965907;28;20109;-80
2022/01/26 14:06:48;;;;;;;7.78;6.65;;;;;;;18.28;47.02;103110.50;4967422;28;20155;-80
2022/01/26 14:09:14;;;;;;;8.38;6.40;;;;;;;18.31;46.69;103109.69;4966290;28;20063;-81